createdAt,value
2018-04-10T00:00:29.817Z,99.90
2018-04-10T00:02:56.039Z,99.90
2018-04-10T00:05:22.309Z,99.90
2018-04-10T00:07:48.546Z,99.90
2018-04-10T00:10:14.869Z,99.90
2018-04-10T00:12:41.069Z,99.90
2018-04-10T00:15:07.623Z,99.90
2018-04-10T00:17:33.817Z,99.90
2018-04-10T00:20:00.103Z,99.90
2018-04-10T00:22:26.388Z,99.90
2018-04-10T00:27:25.589Z,99.90
2018-04-10T00:29:51.960Z,99.90
2018-04-10T00:32:18.203Z,99.90
2018-04-10T00:34:44.527Z,99.90
2018-04-10T00:37:10.703Z,99.90
2018-04-10T00:39:37.034Z,99.90
2018-04-10T00:42:03.344Z,99.90
2018-04-10T00:44:29.624Z,99.90
2018-04-10T00:46:55.915Z,99.90
2018-04-10T00:49:22.174Z,99.90
2018-04-10T00:51:48.545Z,99.90
2018-04-10T00:54:15.891Z,99.90
2018-04-10T00:56:43.006Z,99.90
2018-04-10T00:59:09.291Z,99.90
2018-04-10T01:01:36.460Z,99.90
2018-04-10T01:04:02.814Z,99.90
2018-04-10T01:06:28.985Z,99.90
2018-04-10T01:11:49.150Z,99.90
2018-04-10T01:14:15.448Z,99.90
2018-04-10T01:16:41.764Z,99.90
2018-04-10T01:19:07.925Z,99.90
2018-04-10T01:21:35.306Z,99.90
2018-04-10T01:24:01.529Z,99.90
2018-04-10T01:26:27.939Z,99.90
2018-04-10T01:28:54.327Z,99.90
2018-04-10T01:31:20.643Z,99.90
2018-04-10T01:33:47.704Z,99.90
2018-04-10T01:36:13.904Z,99.90
2018-04-10T01:38:40.902Z,99.90
2018-04-10T01:41:07.186Z,99.90
2018-04-10T01:43:34.135Z,99.90
2018-04-10T01:46:01.176Z,99.90
2018-04-10T01:48:28.287Z,99.90
2018-04-10T01:50:54.467Z,99.90
2018-04-10T01:53:20.815Z,99.90
2018-04-10T01:55:47.196Z,99.90
2018-04-10T01:58:13.489Z,99.90
2018-04-10T02:00:40.072Z,99.90
2018-04-10T02:03:07.116Z,99.90
2018-04-10T02:05:34.073Z,99.90
2018-04-10T02:08:01.147Z,99.90
2018-04-10T02:10:27.539Z,99.90
2018-04-10T02:12:54.558Z,99.90
2018-04-10T02:15:20.780Z,99.90
2018-04-10T02:17:46.998Z,99.90
2018-04-10T02:20:13.381Z,99.90
2018-04-10T02:22:39.732Z,99.90
2018-04-10T02:25:06.031Z,99.90
2018-04-10T02:27:32.336Z,99.90
2018-04-10T02:30:00.081Z,99.90
2018-04-10T02:32:26.380Z,99.90
2018-04-10T02:34:52.621Z,99.90
2018-04-10T02:37:19.113Z,99.90
2018-04-10T02:39:46.170Z,99.90
2018-04-10T02:42:12.441Z,99.90
2018-04-10T02:44:38.825Z,99.90
2018-04-10T02:47:05.166Z,99.90
2018-04-10T02:49:31.498Z,99.90
2018-04-10T02:51:57.677Z,99.90
2018-04-10T02:54:24.088Z,99.90
2018-04-10T02:56:50.420Z,99.90
2018-04-10T02:59:16.750Z,99.90
2018-04-10T03:01:43.029Z,99.90
2018-04-10T03:04:10.083Z,99.90
2018-04-10T03:06:36.412Z,99.90
2018-04-10T03:09:02.679Z,99.90
2018-04-10T03:11:29.011Z,99.90
2018-04-10T03:13:55.193Z,99.90
2018-04-10T03:16:21.520Z,99.90
2018-04-10T03:18:47.816Z,99.90
2018-04-10T03:21:14.181Z,99.90
2018-04-10T03:23:40.406Z,99.90
2018-04-10T03:26:06.728Z,99.90
2018-04-10T03:28:33.661Z,99.90
2018-04-10T03:31:15.607Z,99.90
2018-04-10T03:33:41.947Z,99.90
2018-04-10T03:36:08.268Z,99.90
2018-04-10T03:38:34.578Z,99.90
2018-04-10T03:41:00.901Z,99.90
2018-04-10T03:43:27.088Z,99.90
2018-04-10T03:45:53.442Z,99.90
2018-04-10T03:48:19.769Z,99.90
2018-04-10T03:50:46.678Z,99.90
2018-04-10T03:53:14.381Z,99.90
2018-04-10T03:55:40.663Z,99.90
2018-04-10T03:58:06.966Z,99.90
2018-04-10T04:00:33.333Z,99.90
2018-04-10T04:03:01.132Z,99.90
2018-04-10T04:05:27.448Z,99.90
2018-04-10T04:07:55.143Z,99.90
2018-04-10T04:10:21.397Z,99.90
2018-04-10T04:12:47.635Z,99.90
2018-04-10T04:15:15.203Z,99.90
2018-04-10T04:17:41.509Z,99.90
2018-04-10T04:20:20.245Z,99.90
2018-04-10T04:22:46.540Z,99.90
2018-04-10T04:25:12.792Z,99.90
2018-04-10T04:27:39.090Z,99.90
2018-04-10T04:30:05.391Z,99.90
2018-04-10T04:32:31.714Z,99.90
2018-04-10T04:34:58.690Z,99.90
2018-04-10T04:37:25.039Z,99.90
2018-04-10T04:39:51.486Z,99.90
2018-04-10T04:42:17.857Z,99.90
2018-04-10T04:44:44.099Z,99.90
2018-04-10T04:47:10.410Z,99.90
2018-04-10T04:49:36.753Z,99.90
2018-04-10T04:52:03.054Z,99.90
2018-04-10T04:54:29.987Z,99.90
2018-04-10T04:56:56.188Z,99.90
2018-04-10T04:59:22.375Z,99.90
2018-04-10T05:01:48.618Z,99.90
2018-04-10T05:04:14.999Z,99.90
2018-04-10T05:06:41.370Z,99.90
2018-04-10T05:09:07.574Z,99.90
2018-04-10T05:11:34.801Z,99.90
2018-04-10T05:14:01.784Z,99.90
2018-04-10T05:16:28.155Z,99.90
2018-04-10T05:18:54.498Z,99.90
2018-04-10T05:21:20.846Z,99.90
2018-04-10T05:23:47.120Z,99.90
2018-04-10T05:26:13.687Z,99.90
2018-04-10T05:28:39.966Z,99.90
2018-04-10T05:31:06.382Z,99.90
2018-04-10T05:33:33.341Z,99.90
2018-04-10T05:35:59.668Z,99.90
2018-04-10T05:38:26.048Z,99.90
2018-04-10T05:40:52.484Z,99.90
2018-04-10T05:43:18.744Z,99.90
2018-04-10T05:45:45.807Z,99.90
2018-04-10T05:48:12.242Z,99.90
2018-04-10T05:50:38.468Z,99.90
2018-04-10T05:53:04.754Z,99.90
2018-04-10T05:55:30.996Z,99.90
2018-04-10T05:57:58.155Z,99.90
2018-04-10T06:00:25.273Z,99.90
2018-04-10T06:02:53.035Z,99.90
2018-04-10T06:05:20.702Z,99.90
2018-04-10T06:07:48.312Z,99.90
2018-04-10T06:10:14.610Z,99.90
2018-04-10T06:12:41.543Z,99.90
2018-04-10T06:15:08.049Z,99.90
2018-04-10T06:17:34.239Z,99.90
2018-04-10T06:20:00.517Z,99.90
2018-04-10T06:22:26.765Z,99.90
2018-04-10T06:24:53.751Z,99.90
2018-04-10T06:27:20.069Z,99.90
2018-04-10T06:29:46.436Z,99.90
2018-04-10T06:32:12.702Z,99.90
2018-04-10T06:34:39.756Z,99.90
2018-04-10T06:37:06.188Z,99.90
2018-04-10T06:39:33.404Z,99.90
2018-04-10T06:42:01.673Z,99.90
2018-04-10T06:44:28.028Z,99.90
2018-04-10T06:46:55.048Z,99.90
2018-04-10T06:49:21.475Z,99.90
2018-04-10T06:51:47.719Z,99.90
2018-04-10T06:54:14.150Z,99.90
2018-04-10T06:56:41.139Z,99.90
2018-04-10T06:59:07.551Z,99.90
2018-04-10T07:01:35.166Z,99.90
2018-04-10T07:04:01.490Z,99.90
2018-04-10T07:06:27.839Z,99.90
2018-04-10T07:08:54.207Z,99.90
2018-04-10T07:11:20.497Z,99.90
2018-04-10T07:13:46.725Z,99.90
2018-04-10T07:16:13.051Z,99.90
2018-04-10T07:18:39.572Z,99.90
2018-04-10T07:21:05.903Z,99.90
2018-04-10T07:26:32.087Z,99.90
2018-04-10T07:28:59.059Z,99.90
2018-04-10T07:31:25.287Z,99.90
2018-04-10T07:33:51.519Z,99.90
2018-04-10T07:36:17.736Z,99.90
2018-04-10T07:38:43.973Z,99.90
2018-04-10T07:41:10.143Z,99.90
2018-04-10T07:43:36.491Z,99.90
2018-04-10T07:46:04.065Z,99.90
2018-04-10T07:48:30.976Z,99.90
2018-04-10T07:50:57.375Z,99.90
2018-04-10T07:53:23.719Z,99.90
2018-04-10T07:55:49.962Z,99.90
2018-04-10T07:58:16.273Z,99.90
2018-04-10T08:00:42.544Z,99.90
2018-04-10T08:03:09.665Z,99.90
2018-04-10T08:05:35.909Z,99.90
2018-04-10T08:08:03.134Z,99.90
2018-04-10T08:10:29.670Z,99.90
2018-04-10T08:12:55.965Z,99.90
2018-04-10T08:15:22.293Z,99.90
2018-04-10T08:17:48.477Z,99.90
2018-04-10T08:20:14.903Z,99.70
2018-04-10T08:22:41.134Z,99.90
2018-04-10T08:25:07.570Z,99.90
2018-04-10T08:27:34.542Z,99.60
2018-04-10T08:30:01.018Z,99.60
2018-04-10T08:32:27.458Z,99.40
2018-04-10T08:34:53.840Z,99.90
2018-04-10T08:37:19.992Z,99.90
2018-04-10T08:39:46.275Z,99.70
2018-04-10T08:42:12.772Z,98.80
2018-04-10T08:44:38.980Z,99.90
2018-04-10T08:47:05.256Z,99.90
2018-04-10T08:49:32.286Z,98.40
2018-04-10T08:51:58.675Z,98.40
2018-04-10T08:54:24.961Z,96.60
2018-04-10T08:56:51.919Z,96.10
2018-04-10T08:59:18.984Z,95.00
2018-04-10T09:01:45.417Z,95.00
2018-04-10T09:04:11.725Z,93.10
2018-04-10T09:06:39.106Z,96.10
2018-04-10T09:09:05.362Z,96.10
2018-04-10T09:11:31.819Z,95.70
2018-04-10T09:13:58.807Z,91.60
2018-04-10T09:16:25.001Z,91.50
2018-04-10T09:18:52.127Z,90.60
2018-04-10T09:21:18.465Z,90.60
2018-04-10T09:23:44.716Z,91.00
2018-04-10T09:26:11.210Z,90.30
2018-04-10T09:28:37.423Z,92.60
2018-04-10T09:31:03.631Z,93.10
2018-04-10T09:33:29.966Z,92.20
2018-04-10T09:35:56.343Z,92.70
2018-04-10T09:38:22.646Z,92.40
2018-04-10T09:40:48.997Z,87.20
2018-04-10T09:43:15.286Z,90.40
2018-04-10T09:45:41.902Z,88.80
2018-04-10T09:48:08.091Z,86.80
2018-04-10T09:50:34.335Z,81.30
2018-04-10T09:53:01.273Z,80.30
2018-04-10T09:55:27.686Z,80.20
2018-04-10T09:57:54.016Z,83.90
2018-04-10T10:00:26.547Z,81.80
2018-04-10T10:02:52.828Z,82.90
2018-04-10T10:05:19.142Z,81.70
2018-04-10T10:07:45.377Z,82.20
2018-04-10T10:10:11.703Z,76.90
2018-04-10T10:12:38.028Z,79.50
2018-04-10T10:15:04.305Z,79.10
2018-04-10T10:17:30.531Z,74.40
2018-04-10T10:19:57.693Z,75.70
2018-04-10T10:22:23.839Z,75.70
2018-04-10T10:24:50.001Z,73.40
2018-04-10T10:27:16.334Z,73.90
2018-04-10T10:29:42.949Z,73.00
2018-04-10T10:32:09.174Z,73.50
2018-04-10T10:34:35.383Z,72.30
2018-04-10T10:37:01.582Z,70.80
2018-04-10T10:39:27.858Z,75.00
2018-04-10T10:41:54.078Z,73.60
2018-04-10T10:44:20.357Z,66.40
2018-04-10T10:46:47.405Z,69.40
2018-04-10T10:49:14.510Z,70.70
2018-04-10T10:51:40.690Z,70.60
2018-04-10T10:54:07.786Z,68.80
2018-04-10T10:56:35.775Z,69.70
2018-04-10T10:59:02.099Z,68.50
2018-04-10T11:01:28.297Z,68.00
2018-04-10T11:03:54.690Z,67.70
2018-04-10T11:06:20.964Z,67.80
2018-04-10T11:08:47.344Z,69.00
2018-04-10T11:11:14.551Z,65.70
2018-04-10T11:13:40.847Z,65.10
2018-04-10T11:16:07.177Z,63.80
2018-04-10T11:18:34.497Z,65.70
2018-04-10T11:21:01.456Z,66.20
2018-04-10T11:23:27.838Z,66.00
2018-04-10T11:25:54.124Z,67.40
2018-04-10T11:28:20.438Z,67.30
2018-04-10T11:30:47.523Z,68.00
2018-04-10T11:33:13.841Z,67.90
2018-04-10T11:35:40.046Z,66.70
2018-04-10T11:38:06.992Z,63.80
2018-04-10T11:40:34.028Z,61.60
2018-04-10T11:43:01.143Z,61.20
2018-04-10T11:45:27.450Z,61.10
2018-04-10T11:47:53.710Z,64.80
2018-04-10T11:50:20.041Z,63.10
2018-04-10T11:52:46.461Z,62.60
2018-04-10T11:55:12.835Z,63.10
2018-04-10T11:57:39.855Z,63.20
2018-04-10T12:00:06.169Z,62.50
2018-04-10T12:02:32.565Z,61.70
2018-04-10T12:04:58.774Z,62.80
2018-04-10T12:07:25.055Z,63.90
2018-04-10T12:09:51.293Z,61.50
2018-04-10T12:12:17.609Z,60.70
2018-04-10T12:14:44.051Z,59.70
2018-04-10T12:17:10.313Z,59.40
2018-04-10T12:19:37.344Z,54.30
2018-04-10T12:22:03.596Z,54.20
2018-04-10T12:24:30.560Z,55.40
2018-04-10T12:26:56.811Z,55.50
2018-04-10T12:29:23.182Z,56.40
2018-04-10T12:31:49.646Z,55.80
2018-04-10T12:34:16.288Z,54.30
2018-04-10T12:36:42.619Z,53.90
2018-04-10T12:39:09.616Z,55.90
2018-04-10T12:41:36.140Z,56.00
2018-04-10T12:44:02.385Z,53.50
2018-04-10T12:46:29.414Z,54.80
2018-04-10T12:48:55.859Z,54.70
2018-04-10T12:51:22.105Z,53.20
2018-04-10T12:53:49.073Z,54.60
2018-04-10T12:56:15.317Z,54.50
2018-04-10T12:58:41.531Z,53.40
2018-04-10T13:01:07.715Z,54.70
2018-04-10T13:03:33.957Z,54.70
2018-04-10T13:06:01.132Z,51.80
2018-04-10T13:08:27.281Z,51.80
2018-04-10T13:10:53.466Z,54.10
2018-04-10T13:13:20.473Z,50.50
2018-04-10T13:15:46.673Z,50.40
2018-04-10T13:18:12.920Z,50.40
2018-04-10T13:20:39.097Z,48.40
2018-04-10T13:23:06.073Z,48.70
2018-04-10T13:25:32.307Z,48.60
2018-04-10T13:27:58.576Z,48.90
2018-04-10T13:30:24.776Z,48.20
2018-04-10T13:32:51.079Z,47.90
2018-04-10T13:35:17.358Z,47.40
2018-04-10T13:37:43.553Z,47.20
2018-04-10T13:40:09.792Z,46.60
2018-04-10T13:42:36.033Z,47.80
2018-04-10T13:45:02.243Z,46.50
2018-04-10T13:47:28.847Z,47.00
2018-04-10T13:49:55.446Z,47.90
2018-04-10T13:52:21.834Z,48.60
2018-04-10T13:54:47.992Z,49.10
2018-04-10T13:57:14.333Z,48.90
2018-04-10T13:59:41.286Z,53.70
2018-04-10T14:02:08.317Z,54.70
2018-04-10T14:04:34.522Z,54.70
2018-04-10T14:07:07.765Z,55.90
2018-04-10T14:09:34.744Z,57.00
2018-04-10T14:12:00.956Z,57.00
2018-04-10T14:14:27.197Z,57.90
2018-04-10T14:16:53.387Z,58.40
2018-04-10T14:19:20.414Z,60.00
2018-04-10T14:21:46.674Z,59.90
2018-04-10T14:24:20.106Z,59.20
2018-04-10T14:26:46.334Z,58.40
2018-04-10T14:29:12.599Z,59.40
2018-04-10T14:31:39.063Z,59.10
2018-04-10T14:34:05.378Z,58.80
2018-04-10T14:36:32.390Z,57.30
2018-04-10T14:38:58.627Z,57.20
2018-04-10T14:41:24.871Z,57.00
2018-04-10T14:43:51.818Z,56.30
2018-04-10T14:46:18.943Z,56.80
2018-04-10T14:48:45.192Z,56.70
2018-04-10T14:51:11.562Z,57.00
2018-04-10T14:53:37.830Z,57.30
2018-04-10T14:56:04.141Z,58.30
2018-04-10T14:58:30.421Z,56.00
2018-04-10T15:00:57.394Z,56.50
2018-04-10T15:03:23.667Z,56.40
2018-04-10T15:05:49.989Z,57.20
2018-04-10T15:08:16.321Z,58.50
2018-04-10T15:10:42.601Z,57.70
2018-04-10T15:13:08.818Z,57.70
2018-04-10T15:15:35.136Z,58.00
2018-04-10T15:18:02.184Z,58.00
2018-04-10T15:20:29.201Z,58.10
2018-04-10T15:22:55.455Z,58.60
2018-04-10T15:25:22.524Z,58.00
2018-04-10T15:27:48.786Z,57.90
2018-04-10T15:30:15.048Z,57.60
2018-04-10T15:32:41.300Z,57.00
2018-04-10T15:35:07.592Z,55.80
2018-04-10T15:37:33.842Z,55.80
2018-04-10T15:40:00.794Z,54.60
2018-04-10T15:42:27.755Z,54.80
2018-04-10T15:44:54.047Z,54.80
2018-04-10T15:47:20.287Z,54.50
2018-04-10T15:49:47.340Z,54.60
2018-04-10T15:52:14.363Z,53.80
2018-04-10T15:54:40.685Z,53.80
2018-04-10T15:57:06.987Z,54.30
2018-04-10T15:59:33.308Z,52.90
2018-04-10T16:01:59.550Z,52.70
2018-04-10T16:04:25.813Z,49.40
2018-04-10T16:06:52.084Z,49.30
2018-04-10T16:09:18.363Z,48.90
2018-04-10T16:11:44.672Z,49.50
2018-04-10T16:14:10.902Z,48.30
2018-04-10T16:16:37.152Z,49.40
2018-04-10T16:19:03.467Z,49.10
2018-04-10T16:21:29.792Z,49.10
2018-04-10T16:23:56.125Z,48.70
2018-04-10T16:26:22.486Z,48.00
2018-04-10T16:28:49.518Z,48.20
2018-04-10T16:31:15.779Z,48.20
2018-04-10T16:33:42.045Z,49.40
2018-04-10T16:36:08.240Z,47.90
2018-04-10T16:38:34.461Z,49.10
2018-04-10T16:41:00.763Z,49.30
2018-04-10T16:43:27.034Z,49.30
2018-04-10T16:45:53.214Z,50.20
2018-04-10T16:48:19.633Z,50.40
2018-04-10T16:50:45.924Z,50.60
2018-04-10T16:53:12.227Z,50.30
2018-04-10T16:55:38.495Z,51.20
2018-04-10T16:58:04.845Z,51.60
2018-04-10T17:00:31.216Z,51.60
2018-04-10T17:02:57.624Z,51.00
2018-04-10T17:05:23.959Z,51.30
2018-04-10T17:07:50.940Z,53.00
2018-04-10T17:10:32.386Z,52.50
2018-04-10T17:12:58.637Z,52.50
2018-04-10T17:15:26.315Z,52.30
2018-04-10T17:17:52.685Z,53.20
2018-04-10T17:20:19.336Z,53.40
2018-04-10T17:22:45.606Z,53.60
2018-04-10T17:25:11.817Z,53.70
2018-04-10T17:27:39.787Z,54.00
2018-04-10T17:30:06.930Z,54.50
2018-04-10T17:32:33.976Z,54.80
2018-04-10T17:35:00.959Z,55.00
2018-04-10T17:37:27.211Z,55.00
2018-04-10T17:39:53.448Z,55.00
2018-04-10T17:42:19.666Z,56.90
2018-04-10T17:44:45.876Z,57.30
2018-04-10T17:47:12.155Z,57.60
2018-04-10T17:49:38.328Z,58.30
2018-04-10T17:52:04.666Z,59.20
2018-04-10T17:54:30.849Z,60.10
2018-04-10T17:56:58.184Z,65.80
2018-04-10T17:59:24.557Z,65.70
2018-04-10T18:01:51.887Z,67.90
2018-04-10T18:04:19.042Z,71.80
2018-04-10T18:06:45.962Z,72.40
2018-04-10T18:09:12.194Z,72.40
2018-04-10T18:11:39.299Z,74.90
2018-04-10T18:14:05.517Z,74.90
2018-04-10T18:16:31.791Z,77.40
2018-04-10T18:18:58.046Z,80.00
2018-04-10T18:21:24.442Z,80.70
2018-04-10T18:23:50.726Z,83.10
2018-04-10T18:26:17.006Z,86.00
2018-04-10T18:28:44.203Z,90.40
2018-04-10T18:31:10.477Z,90.40
2018-04-10T18:33:36.798Z,91.00
2018-04-10T18:36:03.010Z,92.20
2018-04-10T18:38:29.340Z,93.40
2018-04-10T18:40:55.759Z,94.30
2018-04-10T18:43:22.122Z,95.70
2018-04-10T18:45:48.378Z,96.80
2018-04-10T18:48:15.541Z,97.60
2018-04-10T18:50:42.522Z,99.10
2018-04-10T18:53:08.909Z,99.00
2018-04-10T18:55:35.910Z,99.90
2018-04-10T18:58:02.283Z,99.90
2018-04-10T19:00:29.296Z,99.90
2018-04-10T19:02:55.521Z,99.90
2018-04-10T19:05:21.858Z,99.90
2018-04-10T19:07:48.144Z,99.90
2018-04-10T19:10:14.404Z,99.90
2018-04-10T19:12:40.647Z,99.90
2018-04-10T19:15:07.892Z,99.90
2018-04-10T19:17:35.770Z,99.90
2018-04-10T19:20:02.139Z,99.90
2018-04-10T19:22:28.375Z,99.90
2018-04-10T19:24:54.619Z,99.90
2018-04-10T19:27:20.818Z,99.90
2018-04-10T19:29:47.251Z,99.90
2018-04-10T19:32:13.549Z,99.90
2018-04-10T19:34:39.829Z,99.90
2018-04-10T19:37:06.067Z,99.90
2018-04-10T19:39:33.073Z,99.90
2018-04-10T19:41:59.400Z,99.90
2018-04-10T19:44:26.202Z,99.90
2018-04-10T19:46:52.453Z,99.90
2018-04-10T19:49:19.593Z,99.90
2018-04-10T19:51:45.887Z,99.90
2018-04-10T19:54:19.174Z,99.90
2018-04-10T19:56:46.007Z,99.90
2018-04-10T19:59:12.274Z,99.90
2018-04-10T20:01:38.457Z,99.90
2018-04-10T20:04:04.757Z,99.90
2018-04-10T20:06:31.673Z,99.90
2018-04-10T20:08:58.160Z,99.90
2018-04-10T20:11:24.585Z,99.90
2018-04-10T20:13:50.819Z,99.90
2018-04-10T20:16:17.015Z,99.90
2018-04-10T20:18:44.008Z,99.90
2018-04-10T20:21:10.277Z,99.90
2018-04-10T20:23:36.561Z,99.90
2018-04-10T20:26:02.791Z,99.90
2018-04-10T20:28:29.118Z,99.90
2018-04-10T20:30:55.336Z,99.90
2018-04-10T20:33:21.581Z,99.90
2018-04-10T20:35:47.819Z,99.90
2018-04-10T20:38:14.080Z,99.90
2018-04-10T20:40:40.430Z,99.90
2018-04-10T20:43:07.419Z,99.90
2018-04-10T20:45:33.676Z,99.90
2018-04-10T20:48:00.777Z,99.90
2018-04-10T20:50:27.152Z,99.90
2018-04-10T20:52:54.945Z,99.90
2018-04-10T20:55:21.284Z,99.90
2018-04-10T20:57:47.533Z,99.90
2018-04-10T21:00:13.759Z,99.90
2018-04-10T21:02:39.942Z,99.90
2018-04-10T21:05:07.007Z,99.90
2018-04-10T21:07:33.225Z,99.90
2018-04-10T21:09:59.579Z,99.90
2018-04-10T21:12:25.859Z,99.90
2018-04-10T21:14:52.332Z,99.90
2018-04-10T21:17:18.521Z,99.90
2018-04-10T21:19:44.840Z,99.90
2018-04-10T21:22:10.982Z,99.90
2018-04-10T21:24:37.258Z,99.90
2018-04-10T21:27:03.496Z,99.90
2018-04-10T21:29:29.824Z,99.90
2018-04-10T21:31:56.065Z,99.90
2018-04-10T21:34:22.563Z,99.90
2018-04-10T21:36:49.427Z,99.90
2018-04-10T21:39:15.707Z,99.90
2018-04-10T21:41:42.688Z,99.90
2018-04-10T21:44:16.137Z,99.90
2018-04-10T21:46:42.499Z,99.90
2018-04-10T21:49:08.822Z,99.90
2018-04-10T21:51:36.808Z,99.90
2018-04-10T21:54:03.086Z,99.90
2018-04-10T21:56:29.450Z,99.90
2018-04-10T21:58:55.828Z,99.90
2018-04-10T22:01:22.169Z,99.90
2018-04-10T22:03:48.425Z,99.90
2018-04-10T22:06:15.452Z,99.90
2018-04-10T22:08:42.052Z,99.90
2018-04-10T22:11:08.269Z,99.90
2018-04-10T22:13:34.491Z,99.90
2018-04-10T22:16:00.674Z,99.90
2018-04-10T22:18:26.927Z,99.90
2018-04-10T22:20:53.164Z,99.90
2018-04-10T22:23:19.373Z,99.90
2018-04-10T22:25:46.381Z,99.90
2018-04-10T22:28:14.058Z,99.90
2018-04-10T22:30:40.416Z,99.90
2018-04-10T22:33:07.385Z,99.90
2018-04-10T22:35:33.815Z,99.90
2018-04-10T22:38:00.464Z,99.90
2018-04-10T22:40:26.858Z,99.90
2018-04-10T22:42:53.117Z,99.90
2018-04-10T22:45:19.347Z,99.90
2018-04-10T22:47:45.680Z,99.90
2018-04-10T22:50:13.534Z,99.90
2018-04-10T22:52:39.799Z,99.90
2018-04-10T22:55:06.747Z,99.90
2018-04-10T22:57:33.771Z,99.90
2018-04-10T23:00:00.801Z,99.90
2018-04-10T23:02:27.046Z,99.90
2018-04-10T23:04:53.605Z,99.90
2018-04-10T23:07:20.507Z,99.90
2018-04-10T23:09:46.893Z,99.90
2018-04-10T23:12:13.152Z,99.90
2018-04-10T23:14:39.510Z,99.90
2018-04-10T23:17:05.713Z,99.90
2018-04-10T23:19:31.945Z,99.90
2018-04-10T23:21:58.179Z,99.90
2018-04-10T23:24:24.408Z,99.90
2018-04-10T23:26:50.674Z,99.90
2018-04-10T23:29:18.342Z,99.90
2018-04-10T23:31:44.768Z,99.90
2018-04-10T23:34:11.071Z,99.90
2018-04-10T23:36:37.347Z,99.90
2018-04-10T23:39:04.311Z,99.90
2018-04-10T23:41:31.245Z,99.90
2018-04-10T23:43:58.418Z,99.90
2018-04-10T23:46:24.793Z,99.90
2018-04-10T23:48:51.159Z,99.90
2018-04-10T23:51:18.157Z,99.90
2018-04-10T23:53:44.504Z,99.90
2018-04-10T23:56:11.546Z,99.90
2018-04-10T23:58:37.868Z,99.90
